Terminal Aerodrome Forecast
Issued by NWS

Current Version | Previous Version | Text Only | Print | Product List | Glossary On
Versions: 1 2 3 4 5 6 7 8 9 10 11 12 13 14 15 16 17 18 19 20 21 22 23 24 25 26 27 28 29 30 31 32 33 34 35 36 37 38 39 40 41 42 43 44 45 46 47 48 49 50
000 FTUS42 KRAH 010149 AAB TAFRWI TAF AMD KRWI 010149Z 0102/0124 VRB03KT 2SM BR SCT002 TEMPO 0102/0106 1/2SM FG VV002 FM010600 VRB02KT 1SM BR SCT002 TEMPO 0109/0113 00000KT 1/4SM FG VV002 FM011400 14004KT P6SM FEW025 SCT250=

USA.gov is the U.S. government's official web portal to all federal, state and local government web resources and services.